sensor_id;sensor_type;location;lat;lon;timestamp;P1;durP1;ratioP1;P2;durP2;ratioP2
15153;SDS011;7677;41.896;25.004;2023-04-24T00:02:04;4.03;;;3.40;;
15153;SDS011;7677;41.896;25.004;2023-04-24T00:04:31;3.67;;;3.37;;
15153;SDS011;7677;41.896;25.004;2023-04-24T00:06:59;3.57;;;3.10;;
15153;SDS011;7677;41.896;25.004;2023-04-24T00:09:26;3.37;;;3.07;;
15153;SDS011;7677;41.896;25.004;2023-04-24T00:11:55;4.33;;;3.40;;
15153;SDS011;7677;41.896;25.004;2023-04-24T00:14:22;4.07;;;3.70;;
15153;SDS011;7677;41.896;25.004;2023-04-24T00:16:49;4.43;;;4.03;;
15153;SDS011;7677;41.896;25.004;2023-04-24T00:19:16;3.50;;;3.20;;
15153;SDS011;7677;41.896;25.004;2023-04-24T00:21:46;3.40;;;3.10;;
15153;SDS011;7677;41.896;25.004;2023-04-24T00:24:15;7.13;;;3.30;;
15153;SDS011;7677;41.896;25.004;2023-04-24T00:26:42;3.93;;;3.57;;
15153;SDS011;7677;41.896;25.004;2023-04-24T00:29:11;3.63;;;3.33;;
15153;SDS011;7677;41.896;25.004;2023-04-24T00:31:38;8.77;;;3.80;;
15153;SDS011;7677;41.896;25.004;2023-04-24T00:34:15;3.13;;;2.90;;
15153;SDS011;7677;41.896;25.004;2023-04-24T00:36:43;3.43;;;3.10;;
15153;SDS011;7677;41.896;25.004;2023-04-24T00:39:11;4.00;;;3.60;;
15153;SDS011;7677;41.896;25.004;2023-04-24T00:41:38;4.23;;;3.83;;
15153;SDS011;7677;41.896;25.004;2023-04-24T00:44:05;6.20;;;3.53;;
15153;SDS011;7677;41.896;25.004;2023-04-24T00:46:34;3.90;;;3.60;;
15153;SDS011;7677;41.896;25.004;2023-04-24T00:49:01;4.83;;;3.43;;
15153;SDS011;7677;41.896;25.004;2023-04-24T00:51:29;3.50;;;3.20;;
15153;SDS011;7677;41.896;25.004;2023-04-24T00:53:57;4.17;;;3.87;;
15153;SDS011;7677;41.896;25.004;2023-04-24T00:56:25;3.63;;;3.33;;
15153;SDS011;7677;41.896;25.004;2023-04-24T00:58:52;4.47;;;3.73;;
15153;SDS011;7677;41.896;25.004;2023-04-24T01:01:19;3.67;;;3.37;;
15153;SDS011;7677;41.896;25.004;2023-04-24T01:03:49;5.23;;;4.03;;
15153;SDS011;7677;41.896;25.004;2023-04-24T01:06:18;4.20;;;3.80;;
15153;SDS011;7677;41.896;25.004;2023-04-24T01:08:45;4.00;;;3.70;;
15153;SDS011;7677;41.896;25.004;2023-04-24T01:11:13;3.53;;;3.23;;
15153;SDS011;7677;41.896;25.004;2023-04-24T01:13:41;6.23;;;4.10;;
15153;SDS011;7677;41.896;25.004;2023-04-24T01:16:08;3.73;;;3.10;;
15153;SDS011;7677;41.896;25.004;2023-04-24T01:18:36;4.40;;;3.63;;
15153;SDS011;7677;41.896;25.004;2023-04-24T01:21:05;6.70;;;3.57;;
15153;SDS011;7677;41.896;25.004;2023-04-24T01:23:35;4.37;;;3.73;;
15153;SDS011;7677;41.896;25.004;2023-04-24T01:26:02;5.13;;;3.80;;
15153;SDS011;7677;41.896;25.004;2023-04-24T01:28:29;4.10;;;3.70;;
15153;SDS011;7677;41.896;25.004;2023-04-24T01:30:57;4.83;;;3.67;;
15153;SDS011;7677;41.896;25.004;2023-04-24T01:33:24;3.60;;;3.30;;
15153;SDS011;7677;41.896;25.004;2023-04-24T01:35:52;5.57;;;3.77;;
15153;SDS011;7677;41.896;25.004;2023-04-24T01:38:19;3.73;;;3.43;;
15153;SDS011;7677;41.896;25.004;2023-04-24T01:40:48;5.10;;;3.50;;
15153;SDS011;7677;41.896;25.004;2023-04-24T01:43:16;4.83;;;3.97;;
15153;SDS011;7677;41.896;25.004;2023-04-24T01:45:43;4.00;;;3.70;;
15153;SDS011;7677;41.896;25.004;2023-04-24T01:48:11;4.30;;;3.97;;
15153;SDS011;7677;41.896;25.004;2023-04-24T01:50:38;4.57;;;3.50;;
15153;SDS011;7677;41.896;25.004;2023-04-24T01:53:06;5.00;;;4.10;;
15153;SDS011;7677;41.896;25.004;2023-04-24T01:55:33;3.63;;;3.13;;
15153;SDS011;7677;41.896;25.004;2023-04-24T01:58:02;5.47;;;3.83;;
15153;SDS011;7677;41.896;25.004;2023-04-24T02:00:29;4.27;;;3.50;;
15153;SDS011;7677;41.896;25.004;2023-04-24T02:02:56;3.77;;;3.23;;
15153;SDS011;7677;41.896;25.004;2023-04-24T02:05:23;5.43;;;4.37;;
15153;SDS011;7677;41.896;25.004;2023-04-24T02:07:51;4.97;;;4.13;;
15153;SDS011;7677;41.896;25.004;2023-04-24T02:10:18;5.67;;;3.73;;
15153;SDS011;7677;41.896;25.004;2023-04-24T02:12:45;4.23;;;3.47;;
15153;SDS011;7677;41.896;25.004;2023-04-24T02:15:14;6.73;;;3.43;;
15153;SDS011;7677;41.896;25.004;2023-04-24T02:17:42;4.13;;;3.73;;
15153;SDS011;7677;41.896;25.004;2023-04-24T02:20:09;4.20;;;3.73;;
15153;SDS011;7677;41.896;25.004;2023-04-24T02:22:36;4.70;;;4.27;;
15153;SDS011;7677;41.896;25.004;2023-04-24T02:27:58;4.70;;;3.70;;
15153;SDS011;7677;41.896;25.004;2023-04-24T02:30:26;5.00;;;4.10;;
15153;SDS011;7677;41.896;25.004;2023-04-24T02:32:53;7.43;;;4.50;;
15153;SDS011;7677;41.896;25.004;2023-04-24T02:35:21;4.30;;;3.90;;
15153;SDS011;7677;41.896;25.004;2023-04-24T02:37:48;3.80;;;3.40;;
15153;SDS011;7677;41.896;25.004;2023-04-24T02:40:15;4.57;;;4.07;;
15153;SDS011;7677;41.896;25.004;2023-04-24T02:42:42;5.37;;;4.53;;
15153;SDS011;7677;41.896;25.004;2023-04-24T02:45:10;6.30;;;4.07;;
15153;SDS011;7677;41.896;25.004;2023-04-24T02:47:39;4.20;;;3.80;;
15153;SDS011;7677;41.896;25.004;2023-04-24T02:50:07;4.57;;;4.13;;
15153;SDS011;7677;41.896;25.004;2023-04-24T02:52:34;5.63;;;3.87;;
15153;SDS011;7677;41.896;25.004;2023-04-24T02:55:01;4.90;;;3.93;;
15153;SDS011;7677;41.896;25.004;2023-04-24T02:57:29;5.67;;;4.03;;
15153;SDS011;7677;41.896;25.004;2023-04-24T02:59:56;4.03;;;3.73;;
15153;SDS011;7677;41.896;25.004;2023-04-24T03:02:23;4.33;;;3.93;;
15153;SDS011;7677;41.896;25.004;2023-04-24T03:04:58;4.77;;;3.77;;
15153;SDS011;7677;41.896;25.004;2023-04-24T03:07:25;4.90;;;3.50;;
15153;SDS011;7677;41.896;25.004;2023-04-24T03:09:52;5.70;;;4.10;;
15153;SDS011;7677;41.896;25.004;2023-04-24T03:12:19;4.67;;;3.93;;
15153;SDS011;7677;41.896;25.004;2023-04-24T03:14:48;3.97;;;3.57;;
15153;SDS011;7677;41.896;25.004;2023-04-24T03:17:16;6.23;;;4.17;;
15153;SDS011;7677;41.896;25.004;2023-04-24T03:19:43;4.47;;;4.03;;
15153;SDS011;7677;41.896;25.004;2023-04-24T03:22:12;4.77;;;3.77;;
15153;SDS011;7677;41.896;25.004;2023-04-24T03:24:39;5.23;;;3.90;;
15153;SDS011;7677;41.896;25.004;2023-04-24T03:27:06;5.60;;;4.67;;
15153;SDS011;7677;41.896;25.004;2023-04-24T03:29:33;5.90;;;4.00;;
15153;SDS011;7677;41.896;25.004;2023-04-24T03:32:01;5.43;;;3.73;;
15153;SDS011;7677;41.896;25.004;2023-04-24T03:34:28;4.17;;;3.70;;
15153;SDS011;7677;41.896;25.004;2023-04-24T03:36:55;4.97;;;3.70;;
15153;SDS011;7677;41.896;25.004;2023-04-24T03:39:24;4.80;;;4.10;;
15153;SDS011;7677;41.896;25.004;2023-04-24T03:41:51;4.90;;;3.93;;
15153;SDS011;7677;41.896;25.004;2023-04-24T03:44:18;5.70;;;4.37;;
15153;SDS011;7677;41.896;25.004;2023-04-24T03:46:45;4.37;;;3.97;;
15153;SDS011;7677;41.896;25.004;2023-04-24T03:49:12;4.80;;;3.90;;
15153;SDS011;7677;41.896;25.004;2023-04-24T03:51:39;5.30;;;4.23;;
15153;SDS011;7677;41.896;25.004;2023-04-24T03:54:06;4.83;;;3.73;;
15153;SDS011;7677;41.896;25.004;2023-04-24T03:56:35;5.40;;;4.03;;
15153;SDS011;7677;41.896;25.004;2023-04-24T03:59:02;4.60;;;3.77;;
15153;SDS011;7677;41.896;25.004;2023-04-24T04:01:29;5.07;;;4.20;;
15153;SDS011;7677;41.896;25.004;2023-04-24T04:03:57;6.93;;;4.73;;
15153;SDS011;7677;41.896;25.004;2023-04-24T04:06:24;5.40;;;3.70;;
15153;SDS011;7677;41.896;25.004;2023-04-24T04:08:52;6.20;;;4.50;;
15153;SDS011;7677;41.896;25.004;2023-04-24T04:11:19;5.50;;;4.67;;
15153;SDS011;7677;41.896;25.004;2023-04-24T04:13:47;4.37;;;3.97;;
15153;SDS011;7677;41.896;25.004;2023-04-24T04:16:15;3.87;;;3.47;;
15153;SDS011;7677;41.896;25.004;2023-04-24T04:18:42;4.93;;;4.50;;
15153;SDS011;7677;41.896;25.004;2023-04-24T04:21:10;4.83;;;4.10;;
15153;SDS011;7677;41.896;25.004;2023-04-24T04:23:37;4.77;;;4.37;;
15153;SDS011;7677;41.896;25.004;2023-04-24T04:26:05;4.17;;;3.80;;
15153;SDS011;7677;41.896;25.004;2023-04-24T04:28:33;4.87;;;4.03;;
15153;SDS011;7677;41.896;25.004;2023-04-24T04:31:02;7.33;;;4.97;;
15153;SDS011;7677;41.896;25.004;2023-04-24T04:33:29;4.83;;;4.43;;
15153;SDS011;7677;41.896;25.004;2023-04-24T04:35:57;5.70;;;4.40;;
15153;SDS011;7677;41.896;25.004;2023-04-24T04:38:25;4.67;;;4.23;;
15153;SDS011;7677;41.896;25.004;2023-04-24T04:40:55;5.10;;;4.50;;
15153;SDS011;7677;41.896;25.004;2023-04-24T04:43:22;6.57;;;4.50;;
15153;SDS011;7677;41.896;25.004;2023-04-24T04:45:50;4.97;;;4.47;;
15153;SDS011;7677;41.896;25.004;2023-04-24T04:48:19;6.80;;;4.27;;
15153;SDS011;7677;41.896;25.004;2023-04-24T04:50:47;6.83;;;5.03;;
15153;SDS011;7677;41.896;25.004;2023-04-24T04:53:14;4.97;;;4.03;;
15153;SDS011;7677;41.896;25.004;2023-04-24T04:55:41;5.50;;;4.73;;
15153;SDS011;7677;41.896;25.004;2023-04-24T04:58:15;4.47;;;3.93;;
15153;SDS011;7677;41.896;25.004;2023-04-24T05:00:43;8.63;;;4.90;;
15153;SDS011;7677;41.896;25.004;2023-04-24T05:03:10;8.30;;;4.80;;
15153;SDS011;7677;41.896;25.004;2023-04-24T05:05:38;6.93;;;5.37;;
15153;SDS011;7677;41.896;25.004;2023-04-24T05:08:06;5.73;;;5.07;;
15153;SDS011;7677;41.896;25.004;2023-04-24T05:10:33;5.47;;;4.77;;
15153;SDS011;7677;41.896;25.004;2023-04-24T05:13:02;6.03;;;4.50;;
15153;SDS011;7677;41.896;25.004;2023-04-24T05:15:29;8.23;;;4.87;;
15153;SDS011;7677;41.896;25.004;2023-04-24T05:17:57;8.90;;;4.50;;
15153;SDS011;7677;41.896;25.004;2023-04-24T05:20:24;6.50;;;4.63;;
15153;SDS011;7677;41.896;25.004;2023-04-24T05:22:52;9.90;;;5.03;;
15153;SDS011;7677;41.896;25.004;2023-04-24T05:25:20;6.93;;;4.60;;
15153;SDS011;7677;41.896;25.004;2023-04-24T05:27:47;6.53;;;4.83;;
15153;SDS011;7677;41.896;25.004;2023-04-24T05:30:14;5.03;;;4.50;;
15153;SDS011;7677;41.896;25.004;2023-04-24T05:32:41;7.90;;;5.03;;
15153;SDS011;7677;41.896;25.004;2023-04-24T05:35:08;4.93;;;4.40;;
15153;SDS011;7677;41.896;25.004;2023-04-24T05:37:35;7.37;;;4.73;;
15153;SDS011;7677;41.896;25.004;2023-04-24T05:40:05;6.47;;;4.53;;
15153;SDS011;7677;41.896;25.004;2023-04-24T05:42:34;5.37;;;4.87;;
15153;SDS011;7677;41.896;25.004;2023-04-24T05:45:01;5.20;;;4.53;;
15153;SDS011;7677;41.896;25.004;2023-04-24T05:47:28;5.60;;;4.77;;
15153;SDS011;7677;41.896;25.004;2023-04-24T05:49:55;5.03;;;4.60;;
15153;SDS011;7677;41.896;25.004;2023-04-24T05:52:22;8.90;;;4.53;;
15153;SDS011;7677;41.896;25.004;2023-04-24T05:54:50;4.87;;;4.47;;
15153;SDS011;7677;41.896;25.004;2023-04-24T05:57:18;5.37;;;4.60;;
15153;SDS011;7677;41.896;25.004;2023-04-24T05:59:52;4.77;;;4.17;;
15153;SDS011;7677;41.896;25.004;2023-04-24T06:02:19;6.53;;;4.77;;
15153;SDS011;7677;41.896;25.004;2023-04-24T06:04:47;5.63;;;4.77;;
15153;SDS011;7677;41.896;25.004;2023-04-24T06:07:14;4.70;;;4.23;;
15153;SDS011;7677;41.896;25.004;2023-04-24T06:09:41;6.33;;;4.30;;
15153;SDS011;7677;41.896;25.004;2023-04-24T06:12:08;6.10;;;4.40;;
15153;SDS011;7677;41.896;25.004;2023-04-24T06:14:37;4.77;;;4.27;;
15153;SDS011;7677;41.896;25.004;2023-04-24T06:17:04;4.50;;;4.10;;
15153;SDS011;7677;41.896;25.004;2023-04-24T06:19:31;4.20;;;3.80;;
15153;SDS011;7677;41.896;25.004;2023-04-24T06:21:58;4.40;;;4.00;;
15153;SDS011;7677;41.896;25.004;2023-04-24T06:24:27;4.40;;;4.00;;
15153;SDS011;7677;41.896;25.004;2023-04-24T06:26:54;4.13;;;3.63;;
15153;SDS011;7677;41.896;25.004;2023-04-24T06:29:22;5.10;;;4.20;;
15153;SDS011;7677;41.896;25.004;2023-04-24T06:31:51;4.63;;;4.03;;
15153;SDS011;7677;41.896;25.004;2023-04-24T06:34:18;5.20;;;4.17;;
15153;SDS011;7677;41.896;25.004;2023-04-24T06:36:46;4.23;;;3.77;;
15153;SDS011;7677;41.896;25.004;2023-04-24T06:39:13;3.53;;;3.23;;
15153;SDS011;7677;41.896;25.004;2023-04-24T06:41:40;4.17;;;3.77;;
15153;SDS011;7677;41.896;25.004;2023-04-24T06:44:07;4.60;;;3.83;;
15153;SDS011;7677;41.896;25.004;2023-04-24T06:49:27;4.80;;;4.30;;
15153;SDS011;7677;41.896;25.004;2023-04-24T06:51:54;4.40;;;4.00;;
15153;SDS011;7677;41.896;25.004;2023-04-24T06:54:21;6.97;;;4.00;;
15153;SDS011;7677;41.896;25.004;2023-04-24T06:56:50;4.20;;;3.80;;
15153;SDS011;7677;41.896;25.004;2023-04-24T06:59:17;4.37;;;4.03;;
15153;SDS011;7677;41.896;25.004;2023-04-24T07:01:44;5.40;;;3.83;;
15153;SDS011;7677;41.896;25.004;2023-04-24T07:04:13;4.07;;;3.77;;
15153;SDS011;7677;41.896;25.004;2023-04-24T07:06:40;3.50;;;3.20;;
15153;SDS011;7677;41.896;25.004;2023-04-24T07:09:07;6.23;;;3.90;;
15153;SDS011;7677;41.896;25.004;2023-04-24T07:11:35;5.07;;;4.50;;
15153;SDS011;7677;41.896;25.004;2023-04-24T07:14:03;8.97;;;4.80;;
15153;SDS011;7677;41.896;25.004;2023-04-24T07:16:31;10.60;;;7.60;;
15153;SDS011;7677;41.896;25.004;2023-04-24T07:18:58;13.07;;;6.80;;
15153;SDS011;7677;41.896;25.004;2023-04-24T07:21:27;7.10;;;6.03;;
15153;SDS011;7677;41.896;25.004;2023-04-24T07:23:54;8.40;;;6.17;;
15153;SDS011;7677;41.896;25.004;2023-04-24T07:26:21;7.03;;;5.90;;
15153;SDS011;7677;41.896;25.004;2023-04-24T07:28:48;5.53;;;4.67;;
15153;SDS011;7677;41.896;25.004;2023-04-24T07:31:15;4.90;;;4.50;;
15153;SDS011;7677;41.896;25.004;2023-04-24T07:33:42;4.60;;;3.70;;
15153;SDS011;7677;41.896;25.004;2023-04-24T07:36:09;5.07;;;3.83;;
15153;SDS011;7677;41.896;25.004;2023-04-24T07:38:42;8.83;;;3.73;;
15153;SDS011;7677;41.896;25.004;2023-04-24T07:41:09;4.03;;;3.63;;
15153;SDS011;7677;41.896;25.004;2023-04-24T07:43:36;6.60;;;4.60;;
15153;SDS011;7677;41.896;25.004;2023-04-24T07:46:03;4.90;;;4.50;;
15153;SDS011;7677;41.896;25.004;2023-04-24T07:48:30;5.77;;;4.63;;
15153;SDS011;7677;41.896;25.004;2023-04-24T07:50:58;5.27;;;4.07;;
15153;SDS011;7677;41.896;25.004;2023-04-24T07:53:25;5.33;;;4.83;;
15153;SDS011;7677;41.896;25.004;2023-04-24T07:55:55;5.60;;;5.00;;
15153;SDS011;7677;41.896;25.004;2023-04-24T07:58:22;5.00;;;4.50;;
15153;SDS011;7677;41.896;25.004;2023-04-24T08:00:50;5.23;;;4.73;;
15153;SDS011;7677;41.896;25.004;2023-04-24T08:03:17;4.97;;;4.57;;
15153;SDS011;7677;41.896;25.004;2023-04-24T08:05:45;5.23;;;4.73;;
15153;SDS011;7677;41.896;25.004;2023-04-24T08:08:12;4.80;;;4.40;;
15153;SDS011;7677;41.896;25.004;2023-04-24T08:10:40;4.30;;;3.93;;
15153;SDS011;7677;41.896;25.004;2023-04-24T08:13:08;4.47;;;4.07;;
15153;SDS011;7677;41.896;25.004;2023-04-24T08:15:36;4.73;;;4.23;;
15153;SDS011;7677;41.896;25.004;2023-04-24T08:18:03;5.93;;;5.33;;
15153;SDS011;7677;41.896;25.004;2023-04-24T08:20:31;5.53;;;4.73;;
15153;SDS011;7677;41.896;25.004;2023-04-24T08:22:58;5.20;;;4.60;;
15153;SDS011;7677;41.896;25.004;2023-04-24T08:25:25;6.10;;;4.30;;
15153;SDS011;7677;41.896;25.004;2023-04-24T08:27:52;6.40;;;4.77;;
15153;SDS011;7677;41.896;25.004;2023-04-24T08:30:21;4.63;;;4.23;;
15153;SDS011;7677;41.896;25.004;2023-04-24T08:32:48;5.67;;;3.93;;
15153;SDS011;7677;41.896;25.004;2023-04-24T08:35:15;4.57;;;4.17;;
15153;SDS011;7677;41.896;25.004;2023-04-24T08:40:30;4.20;;;3.80;;
15153;SDS011;7677;41.896;25.004;2023-04-24T08:43:00;4.03;;;3.60;;
15153;SDS011;7677;41.896;25.004;2023-04-24T08:45:29;3.97;;;3.57;;
15153;SDS011;7677;41.896;25.004;2023-04-24T08:47:56;4.63;;;4.10;;
15153;SDS011;7677;41.896;25.004;2023-04-24T08:50:25;4.57;;;3.80;;
15153;SDS011;7677;41.896;25.004;2023-04-24T08:52:52;6.20;;;4.57;;
15153;SDS011;7677;41.896;25.004;2023-04-24T08:55:19;7.07;;;4.07;;
15153;SDS011;7677;41.896;25.004;2023-04-24T08:57:50;4.87;;;4.40;;
15153;SDS011;7677;41.896;25.004;2023-04-24T09:03:12;4.13;;;3.73;;
15153;SDS011;7677;41.896;25.004;2023-04-24T09:05:41;5.40;;;4.30;;
15153;SDS011;7677;41.896;25.004;2023-04-24T09:08:11;4.87;;;3.70;;
15153;SDS011;7677;41.896;25.004;2023-04-24T09:10:39;4.73;;;4.23;;
15153;SDS011;7677;41.896;25.004;2023-04-24T09:13:07;4.23;;;3.83;;
15153;SDS011;7677;41.896;25.004;2023-04-24T09:15:35;5.47;;;4.27;;
15153;SDS011;7677;41.896;25.004;2023-04-24T09:18:04;5.57;;;4.40;;
15153;SDS011;7677;41.896;25.004;2023-04-24T09:20:32;4.30;;;3.90;;
15153;SDS011;7677;41.896;25.004;2023-04-24T09:23:01;4.63;;;4.10;;
15153;SDS011;7677;41.896;25.004;2023-04-24T09:25:31;3.60;;;3.30;;
15153;SDS011;7677;41.896;25.004;2023-04-24T09:28:00;3.80;;;3.43;;
15153;SDS011;7677;41.896;25.004;2023-04-24T09:30:28;3.90;;;3.50;;
15153;SDS011;7677;41.896;25.004;2023-04-24T09:33:12;5.00;;;4.07;;
15153;SDS011;7677;41.896;25.004;2023-04-24T09:35:40;6.27;;;4.47;;
15153;SDS011;7677;41.896;25.004;2023-04-24T09:38:09;4.57;;;4.03;;
15153;SDS011;7677;41.896;25.004;2023-04-24T09:40:36;4.77;;;4.37;;
15153;SDS011;7677;41.896;25.004;2023-04-24T09:43:03;5.00;;;4.10;;
15153;SDS011;7677;41.896;25.004;2023-04-24T09:45:35;4.80;;;4.30;;
15153;SDS011;7677;41.896;25.004;2023-04-24T09:48:02;5.70;;;4.97;;
15153;SDS011;7677;41.896;25.004;2023-04-24T09:50:33;5.37;;;4.70;;
15153;SDS011;7677;41.896;25.004;2023-04-24T09:53:01;5.23;;;4.53;;
15153;SDS011;7677;41.896;25.004;2023-04-24T09:55:29;4.73;;;4.33;;
15153;SDS011;7677;41.896;25.004;2023-04-24T09:57:57;5.20;;;4.70;;
15153;SDS011;7677;41.896;25.004;2023-04-24T10:00:26;5.10;;;4.37;;
15153;SDS011;7677;41.896;25.004;2023-04-24T10:02:55;4.50;;;4.10;;
15153;SDS011;7677;41.896;25.004;2023-04-24T10:05:24;4.67;;;4.23;;
15153;SDS011;7677;41.896;25.004;2023-04-24T10:07:59;4.03;;;3.63;;
15153;SDS011;7677;41.896;25.004;2023-04-24T10:10:28;4.97;;;4.37;;
15153;SDS011;7677;41.896;25.004;2023-04-24T10:12:55;4.87;;;4.23;;
15153;SDS011;7677;41.896;25.004;2023-04-24T10:15:23;6.10;;;3.97;;
15153;SDS011;7677;41.896;25.004;2023-04-24T10:17:51;5.27;;;4.70;;
15153;SDS011;7677;41.896;25.004;2023-04-24T10:20:19;5.47;;;3.90;;
15153;SDS011;7677;41.896;25.004;2023-04-24T10:22:48;7.47;;;4.87;;
15153;SDS011;7677;41.896;25.004;2023-04-24T10:25:20;5.37;;;4.03;;
15153;SDS011;7677;41.896;25.004;2023-04-24T10:27:49;5.20;;;4.70;;
15153;SDS011;7677;41.896;25.004;2023-04-24T10:30:18;5.43;;;4.33;;
15153;SDS011;7677;41.896;25.004;2023-04-24T10:32:46;4.93;;;4.50;;
15153;SDS011;7677;41.896;25.004;2023-04-24T10:35:14;5.53;;;4.87;;
15153;SDS011;7677;41.896;25.004;2023-04-24T10:37:43;4.63;;;4.23;;
15153;SDS011;7677;41.896;25.004;2023-04-24T10:40:12;5.70;;;5.20;;
15153;SDS011;7677;41.896;25.004;2023-04-24T10:42:47;6.20;;;5.23;;
15153;SDS011;7677;41.896;25.004;2023-04-24T10:45:18;6.83;;;5.43;;
15153;SDS011;7677;41.896;25.004;2023-04-24T10:47:53;5.57;;;5.07;;
15153;SDS011;7677;41.896;25.004;2023-04-24T10:50:23;5.27;;;4.77;;
15153;SDS011;7677;41.896;25.004;2023-04-24T10:52:52;6.67;;;5.10;;
15153;SDS011;7677;41.896;25.004;2023-04-24T10:55:40;5.13;;;4.73;;
15153;SDS011;7677;41.896;25.004;2023-04-24T10:58:10;5.43;;;4.93;;
15153;SDS011;7677;41.896;25.004;2023-04-24T11:00:38;5.73;;;5.10;;
15153;SDS011;7677;41.896;25.004;2023-04-24T11:03:06;6.07;;;5.27;;
15153;SDS011;7677;41.896;25.004;2023-04-24T11:08:26;5.50;;;5.00;;
15153;SDS011;7677;41.896;25.004;2023-04-24T11:11:09;6.37;;;5.40;;
15153;SDS011;7677;41.896;25.004;2023-04-24T11:16:35;5.47;;;4.97;;
15153;SDS011;7677;41.896;25.004;2023-04-24T11:19:05;7.77;;;5.57;;
15153;SDS011;7677;41.896;25.004;2023-04-24T11:21:39;4.97;;;4.47;;
15153;SDS011;7677;41.896;25.004;2023-04-24T11:24:26;6.70;;;5.60;;
15153;SDS011;7677;41.896;25.004;2023-04-24T11:26:56;4.83;;;4.40;;
15153;SDS011;7677;41.896;25.004;2023-04-24T11:29:39;7.00;;;5.07;;
15153;SDS011;7677;41.896;25.004;2023-04-24T11:32:14;5.00;;;4.50;;
15153;SDS011;7677;41.896;25.004;2023-04-24T11:34:52;5.30;;;4.80;;
15153;SDS011;7677;41.896;25.004;2023-04-24T11:37:21;5.77;;;4.70;;
15153;SDS011;7677;41.896;25.004;2023-04-24T11:39:50;5.07;;;4.53;;
15153;SDS011;7677;41.896;25.004;2023-04-24T11:42:18;5.07;;;4.57;;
15153;SDS011;7677;41.896;25.004;2023-04-24T11:44:47;4.50;;;4.10;;
15153;SDS011;7677;41.896;25.004;2023-04-24T11:47:15;4.93;;;4.30;;
15153;SDS011;7677;41.896;25.004;2023-04-24T11:49:42;5.18;;;4.68;;
15153;SDS011;7677;41.896;25.004;2023-04-24T11:52:09;4.38;;;3.97;;
15153;SDS011;7677;41.896;25.004;2023-04-24T11:54:37;4.53;;;4.10;;
15153;SDS011;7677;41.896;25.004;2023-04-24T11:57:04;4.57;;;4.15;;
15153;SDS011;7677;41.896;25.004;2023-04-24T11:59:35;5.10;;;4.37;;
15153;SDS011;7677;41.896;25.004;2023-04-24T12:02:21;5.00;;;4.20;;
15153;SDS011;7677;41.896;25.004;2023-04-24T12:04:49;5.88;;;4.18;;
15153;SDS011;7677;41.896;25.004;2023-04-24T12:07:16;8.77;;;3.97;;
15153;SDS011;7677;41.896;25.004;2023-04-24T12:09:44;4.63;;;4.07;;
15153;SDS011;7677;41.896;25.004;2023-04-24T12:12:12;4.97;;;4.47;;
15153;SDS011;7677;41.896;25.004;2023-04-24T12:14:43;5.27;;;4.77;;
15153;SDS011;7677;41.896;25.004;2023-04-24T12:17:17;4.73;;;4.33;;
15153;SDS011;7677;41.896;25.004;2023-04-24T12:19:48;5.13;;;4.50;;
15153;SDS011;7677;41.896;25.004;2023-04-24T12:22:16;5.00;;;4.50;;
15153;SDS011;7677;41.896;25.004;2023-04-24T12:24:56;4.93;;;4.43;;
15153;SDS011;7677;41.896;25.004;2023-04-24T12:27:29;4.93;;;4.50;;
15153;SDS011;7677;41.896;25.004;2023-04-24T12:29:57;4.28;;;3.95;;
15153;SDS011;7677;41.896;25.004;2023-04-24T12:32:25;9.93;;;9.02;;
15153;SDS011;7677;41.896;25.004;2023-04-24T12:34:54;5.07;;;4.60;;
15153;SDS011;7677;41.896;25.004;2023-04-24T12:37:22;4.55;;;4.15;;
15153;SDS011;7677;41.896;25.004;2023-04-24T12:40:00;5.80;;;4.05;;
15153;SDS011;7677;41.896;25.004;2023-04-24T12:42:28;4.10;;;3.80;;
15153;SDS011;7677;41.896;25.004;2023-04-24T12:44:56;3.28;;;2.97;;
15153;SDS011;7677;41.896;25.004;2023-04-24T12:47:25;5.97;;;3.60;;
15153;SDS011;7677;41.896;25.004;2023-04-24T12:49:54;3.25;;;3.03;;
15153;SDS011;7677;41.896;25.004;2023-04-24T12:52:21;3.60;;;3.30;;
15153;SDS011;7677;41.896;25.004;2023-04-24T12:54:49;3.70;;;3.40;;
15153;SDS011;7677;41.896;25.004;2023-04-24T12:57:20;3.55;;;3.25;;
15153;SDS011;7677;41.896;25.004;2023-04-24T12:59:47;4.03;;;3.72;;
15153;SDS011;7677;41.896;25.004;2023-04-24T13:02:14;4.43;;;4.03;;
15153;SDS011;7677;41.896;25.004;2023-04-24T13:04:43;3.53;;;3.22;;
15153;SDS011;7677;41.896;25.004;2023-04-24T13:07:13;5.90;;;3.00;;
15153;SDS011;7677;41.896;25.004;2023-04-24T13:09:40;4.63;;;4.10;;
15153;SDS011;7677;41.896;25.004;2023-04-24T13:12:08;3.90;;;3.60;;
15153;SDS011;7677;41.896;25.004;2023-04-24T13:14:35;3.00;;;2.70;;
15153;SDS011;7677;41.896;25.004;2023-04-24T13:17:03;4.07;;;3.13;;
15153;SDS011;7677;41.896;25.004;2023-04-24T13:19:35;3.88;;;2.78;;
15153;SDS011;7677;41.896;25.004;2023-04-24T13:22:02;3.80;;;3.45;;
15153;SDS011;7677;41.896;25.004;2023-04-24T13:24:31;3.78;;;3.17;;
15153;SDS011;7677;41.896;25.004;2023-04-24T13:26:59;5.93;;;3.35;;
15153;SDS011;7677;41.896;25.004;2023-04-24T13:29:26;7.78;;;3.10;;
15153;SDS011;7677;41.896;25.004;2023-04-24T13:31:54;3.28;;;2.97;;
15153;SDS011;7677;41.896;25.004;2023-04-24T13:34:21;3.38;;;3.08;;
15153;SDS011;7677;41.896;25.004;2023-04-24T13:36:49;6.15;;;3.42;;
15153;SDS011;7677;41.896;25.004;2023-04-24T13:39:17;3.70;;;3.40;;
15153;SDS011;7677;41.896;25.004;2023-04-24T13:41:45;3.35;;;3.05;;
15153;SDS011;7677;41.896;25.004;2023-04-24T13:44:13;3.25;;;3.05;;
15153;SDS011;7677;41.896;25.004;2023-04-24T13:46:41;2.85;;;2.65;;
15153;SDS011;7677;41.896;25.004;2023-04-24T13:49:09;2.72;;;2.53;;
15153;SDS011;7677;41.896;25.004;2023-04-24T13:51:36;3.40;;;3.08;;
15153;SDS011;7677;41.896;25.004;2023-04-24T13:54:03;3.42;;;2.97;;
15153;SDS011;7677;41.896;25.004;2023-04-24T13:56:31;3.40;;;3.00;;
15153;SDS011;7677;41.896;25.004;2023-04-24T13:58:59;4.80;;;3.10;;
15153;SDS011;7677;41.896;25.004;2023-04-24T14:01:27;5.03;;;3.28;;
15153;SDS011;7677;41.896;25.004;2023-04-24T14:03:55;3.28;;;2.92;;
15153;SDS011;7677;41.896;25.004;2023-04-24T14:06:22;3.60;;;3.30;;
15153;SDS011;7677;41.896;25.004;2023-04-24T14:08:49;3.45;;;3.15;;
15153;SDS011;7677;41.896;25.004;2023-04-24T14:11:17;3.65;;;3.35;;
15153;SDS011;7677;41.896;25.004;2023-04-24T14:13:45;3.42;;;3.10;;
15153;SDS011;7677;41.896;25.004;2023-04-24T14:16:13;4.25;;;2.88;;
15153;SDS011;7677;41.896;25.004;2023-04-24T14:18:41;4.20;;;3.80;;
15153;SDS011;7677;41.896;25.004;2023-04-24T14:21:08;3.42;;;3.05;;
15153;SDS011;7677;41.896;25.004;2023-04-24T14:23:35;3.88;;;3.22;;
15153;SDS011;7677;41.896;25.004;2023-04-24T14:26:02;5.43;;;3.30;;
15153;SDS011;7677;41.896;25.004;2023-04-24T14:28:29;3.92;;;3.53;;
15153;SDS011;7677;41.896;25.004;2023-04-24T14:30:57;3.47;;;3.17;;
15153;SDS011;7677;41.896;25.004;2023-04-24T14:33:25;3.50;;;3.13;;
15153;SDS011;7677;41.896;25.004;2023-04-24T14:35:53;3.05;;;2.80;;
15153;SDS011;7677;41.896;25.004;2023-04-24T14:38:20;3.03;;;2.72;;
15153;SDS011;7677;41.896;25.004;2023-04-24T14:40:51;2.75;;;2.55;;
15153;SDS011;7677;41.896;25.004;2023-04-24T14:43:23;1.83;;;1.73;;
15153;SDS011;7677;41.896;25.004;2023-04-24T14:45:50;1.88;;;1.60;;
15153;SDS011;7677;41.896;25.004;2023-04-24T14:48:17;1.70;;;1.60;;
15153;SDS011;7677;41.896;25.004;2023-04-24T14:50:46;3.63;;;2.13;;
15153;SDS011;7677;41.896;25.004;2023-04-24T14:53:14;1.60;;;1.50;;
15153;SDS011;7677;41.896;25.004;2023-04-24T14:55:41;2.20;;;2.00;;
15153;SDS011;7677;41.896;25.004;2023-04-24T14:58:08;4.63;;;3.27;;
15153;SDS011;7677;41.896;25.004;2023-04-24T15:00:36;1.80;;;1.70;;
15153;SDS011;7677;41.896;25.004;2023-04-24T15:03:03;1.67;;;1.57;;
15153;SDS011;7677;41.896;25.004;2023-04-24T15:05:30;1.67;;;1.57;;
15153;SDS011;7677;41.896;25.004;2023-04-24T15:07:59;2.30;;;1.83;;
15153;SDS011;7677;41.896;25.004;2023-04-24T15:10:26;1.70;;;1.60;;
15153;SDS011;7677;41.896;25.004;2023-04-24T15:12:54;1.90;;;1.70;;